sensor_id;sensor_type;location;lat;lon;timestamp;temperature;humidity
67358;HTU21D;54240;51.096;5.878;2022-09-29T00:01:56;7.74;118.99
67358;HTU21D;54240;51.096;5.878;2022-09-29T00:04:21;7.73;118.99
67358;HTU21D;54240;51.096;5.878;2022-09-29T00:06:47;7.70;118.99
67358;HTU21D;54240;51.096;5.878;2022-09-29T00:09:13;7.67;118.99
67358;HTU21D;54240;51.096;5.878;2022-09-29T00:11:39;7.62;118.99
67358;HTU21D;54240;51.096;5.878;2022-09-29T00:14:05;7.61;118.99
67358;HTU21D;54240;51.096;5.878;2022-09-29T00:16:30;7.58;118.99
67358;HTU21D;54240;51.096;5.878;2022-09-29T00:18:56;7.56;118.99
67358;HTU21D;54240;51.096;5.878;2022-09-29T00:21:23;7.53;118.99
67358;HTU21D;54240;51.096;5.878;2022-09-29T00:23:49;7.53;118.99
67358;HTU21D;54240;51.096;5.878;2022-09-29T00:26:18;7.47;118.99
67358;HTU21D;54240;51.096;5.878;2022-09-29T00:28:47;7.46;118.99
67358;HTU21D;54240;51.096;5.878;2022-09-29T00:31:14;7.44;118.99
67358;HTU21D;54240;51.096;5.878;2022-09-29T00:33:40;7.45;118.99
67358;HTU21D;54240;51.096;5.878;2022-09-29T00:36:11;7.42;118.99
67358;HTU21D;54240;51.096;5.878;2022-09-29T00:38:38;7.39;118.99
67358;HTU21D;54240;51.096;5.878;2022-09-29T00:41:04;7.34;118.99
67358;HTU21D;54240;51.096;5.878;2022-09-29T00:44:48;7.29;118.99
67358;HTU21D;54240;51.096;5.878;2022-09-29T00:47:02;7.27;118.99
67358;HTU21D;54240;51.096;5.878;2022-09-29T00:49:53;7.26;118.99
67358;HTU21D;54240;51.096;5.878;2022-09-29T00:52:29;7.22;118.99
67358;HTU21D;54240;51.096;5.878;2022-09-29T00:55:35;7.16;118.99
67358;HTU21D;54240;51.096;5.878;2022-09-29T00:58:06;7.15;118.99
67358;HTU21D;54240;51.096;5.878;2022-09-29T01:00:36;7.11;118.99
67358;HTU21D;54240;51.096;5.878;2022-09-29T01:03:07;7.07;118.99
67358;HTU21D;54240;51.096;5.878;2022-09-29T01:05:41;7.04;118.99
67358;HTU21D;54240;51.096;5.878;2022-09-29T01:08:39;7.00;118.99
67358;HTU21D;54240;51.096;5.878;2022-09-29T01:11:10;6.99;118.99
67358;HTU21D;54240;51.096;5.878;2022-09-29T01:13:37;6.97;118.99
67358;HTU21D;54240;51.096;5.878;2022-09-29T01:16:04;6.96;118.99
67358;HTU21D;54240;51.096;5.878;2022-09-29T01:18:31;6.94;118.99
67358;HTU21D;54240;51.096;5.878;2022-09-29T01:24:33;6.89;118.99
67358;HTU21D;54240;51.096;5.878;2022-09-29T01:27:03;6.88;118.99
67358;HTU21D;54240;51.096;5.878;2022-09-29T01:30:08;6.88;118.99
67358;HTU21D;54240;51.096;5.878;2022-09-29T01:32:55;6.83;118.99
67358;HTU21D;54240;51.096;5.878;2022-09-29T01:35:44;6.78;118.99
67358;HTU21D;54240;51.096;5.878;2022-09-29T01:41:05;6.69;118.99
67358;HTU21D;54240;51.096;5.878;2022-09-29T01:43:41;6.66;118.99
67358;HTU21D;54240;51.096;5.878;2022-09-29T01:48:52;6.63;118.99
67358;HTU21D;54240;51.096;5.878;2022-09-29T01:51:27;6.63;118.99
67358;HTU21D;54240;51.096;5.878;2022-09-29T01:53:59;6.60;118.99
67358;HTU21D;54240;51.096;5.878;2022-09-29T01:56:37;6.60;118.99
67358;HTU21D;54240;51.096;5.878;2022-09-29T01:59:14;6.58;118.99
67358;HTU21D;54240;51.096;5.878;2022-09-29T02:01:46;6.57;118.99
67358;HTU21D;54240;51.096;5.878;2022-09-29T02:05:03;6.58;118.99
67358;HTU21D;54240;51.096;5.878;2022-09-29T02:07:20;6.54;118.99
67358;HTU21D;54240;51.096;5.878;2022-09-29T02:09:56;6.53;118.99
67358;HTU21D;54240;51.096;5.878;2022-09-29T02:12:28;6.53;118.99
67358;HTU21D;54240;51.096;5.878;2022-09-29T02:14:57;6.55;118.99
67358;HTU21D;54240;51.096;5.878;2022-09-29T02:17:40;6.53;118.99
67358;HTU21D;54240;51.096;5.878;2022-09-29T02:20:09;6.51;118.99
67358;HTU21D;54240;51.096;5.878;2022-09-29T02:22:36;6.46;118.99
67358;HTU21D;54240;51.096;5.878;2022-09-29T02:25:04;6.46;118.99
67358;HTU21D;54240;51.096;5.878;2022-09-29T02:27:33;6.44;118.99
67358;HTU21D;54240;51.096;5.878;2022-09-29T02:29:59;6.42;118.99
67358;HTU21D;54240;51.096;5.878;2022-09-29T02:32:25;6.36;118.99
67358;HTU21D;54240;51.096;5.878;2022-09-29T02:34:54;6.36;118.99
67358;HTU21D;54240;51.096;5.878;2022-09-29T02:37:34;6.35;118.99
67358;HTU21D;54240;51.096;5.878;2022-09-29T02:40:28;6.31;118.99
67358;HTU21D;54240;51.096;5.878;2022-09-29T02:51:18;6.15;118.99
67358;HTU21D;54240;51.096;5.878;2022-09-29T02:56:53;6.08;118.99
67358;HTU21D;54240;51.096;5.878;2022-09-29T03:00:06;6.07;118.99
67358;HTU21D;54240;51.096;5.878;2022-09-29T03:02:37;6.05;118.99
67358;HTU21D;54240;51.096;5.878;2022-09-29T03:05:09;6.04;118.99
67358;HTU21D;54240;51.096;5.878;2022-09-29T03:07:37;6.02;118.99
67358;HTU21D;54240;51.096;5.878;2022-09-29T03:10:05;6.01;118.99
67358;HTU21D;54240;51.096;5.878;2022-09-29T03:12:32;6.04;118.99
67358;HTU21D;54240;51.096;5.878;2022-09-29T03:14:58;6.05;118.99
67358;HTU21D;54240;51.096;5.878;2022-09-29T03:17:23;6.07;118.99
67358;HTU21D;54240;51.096;5.878;2022-09-29T03:19:49;6.05;118.99
67358;HTU21D;54240;51.096;5.878;2022-09-29T03:22:15;6.04;118.99
67358;HTU21D;54240;51.096;5.878;2022-09-29T03:24:42;6.02;118.99
67358;HTU21D;54240;51.096;5.878;2022-09-29T03:27:08;6.01;118.99
67358;HTU21D;54240;51.096;5.878;2022-09-29T03:29:37;6.00;118.99
67358;HTU21D;54240;51.096;5.878;2022-09-29T03:32:04;5.97;118.99
67358;HTU21D;54240;51.096;5.878;2022-09-29T03:34:31;5.95;118.99
67358;HTU21D;54240;51.096;5.878;2022-09-29T03:36:57;5.92;118.99
67358;HTU21D;54240;51.096;5.878;2022-09-29T03:39:23;5.89;118.99
67358;HTU21D;54240;51.096;5.878;2022-09-29T03:41:50;5.86;118.99
67358;HTU21D;54240;51.096;5.878;2022-09-29T03:44:16;5.85;118.99
67358;HTU21D;54240;51.096;5.878;2022-09-29T03:46:43;5.82;118.99
67358;HTU21D;54240;51.096;5.878;2022-09-29T03:49:09;5.79;118.99
67358;HTU21D;54240;51.096;5.878;2022-09-29T03:51:36;5.75;118.99
67358;HTU21D;54240;51.096;5.878;2022-09-29T03:54:02;5.72;118.99
67358;HTU21D;54240;51.096;5.878;2022-09-29T03:56:28;5.69;118.99
67358;HTU21D;54240;51.096;5.878;2022-09-29T03:58:54;5.66;118.99
67358;HTU21D;54240;51.096;5.878;2022-09-29T04:01:19;5.63;118.99
67358;HTU21D;54240;51.096;5.878;2022-09-29T04:03:45;5.62;118.99
67358;HTU21D;54240;51.096;5.878;2022-09-29T04:06:11;5.60;118.99
67358;HTU21D;54240;51.096;5.878;2022-09-29T04:08:37;5.60;118.99
67358;HTU21D;54240;51.096;5.878;2022-09-29T04:11:04;5.59;118.99
67358;HTU21D;54240;51.096;5.878;2022-09-29T04:13:30;5.57;118.99
67358;HTU21D;54240;51.096;5.878;2022-09-29T04:16:02;5.57;118.99
67358;HTU21D;54240;51.096;5.878;2022-09-29T04:18:28;5.57;118.99
67358;HTU21D;54240;51.096;5.878;2022-09-29T04:20:54;5.57;118.99
67358;HTU21D;54240;51.096;5.878;2022-09-29T04:23:29;5.60;118.99
67358;HTU21D;54240;51.096;5.878;2022-09-29T04:25:56;5.60;118.99
67358;HTU21D;54240;51.096;5.878;2022-09-29T04:28:22;5.59;118.99
67358;HTU21D;54240;51.096;5.878;2022-09-29T04:30:48;5.57;118.99
67358;HTU21D;54240;51.096;5.878;2022-09-29T04:33:15;5.54;118.99
67358;HTU21D;54240;51.096;5.878;2022-09-29T04:35:41;5.53;118.99
67358;HTU21D;54240;51.096;5.878;2022-09-29T04:38:07;5.51;118.99
67358;HTU21D;54240;51.096;5.878;2022-09-29T04:40:34;5.48;118.99
67358;HTU21D;54240;51.096;5.878;2022-09-29T04:43:02;5.48;118.99
67358;HTU21D;54240;51.096;5.878;2022-09-29T04:45:29;5.45;118.99
67358;HTU21D;54240;51.096;5.878;2022-09-29T04:47:55;5.45;118.99
67358;HTU21D;54240;51.096;5.878;2022-09-29T04:50:21;5.42;118.99
67358;HTU21D;54240;51.096;5.878;2022-09-29T04:52:47;5.36;118.99
67358;HTU21D;54240;51.096;5.878;2022-09-29T04:55:13;5.33;118.99
67358;HTU21D;54240;51.096;5.878;2022-09-29T04:57:41;5.30;118.99
67358;HTU21D;54240;51.096;5.878;2022-09-29T05:00:10;5.26;118.99
67358;HTU21D;54240;51.096;5.878;2022-09-29T05:02:36;5.23;118.99
67358;HTU21D;54240;51.096;5.878;2022-09-29T05:05:03;5.19;118.99
67358;HTU21D;54240;51.096;5.878;2022-09-29T05:07:30;5.18;118.99
67358;HTU21D;54240;51.096;5.878;2022-09-29T05:09:55;5.15;118.99
67358;HTU21D;54240;51.096;5.878;2022-09-29T05:12:21;5.11;118.99
67358;HTU21D;54240;51.096;5.878;2022-09-29T05:14:47;5.11;118.99
67358;HTU21D;54240;51.096;5.878;2022-09-29T05:17:13;5.11;118.99
67358;HTU21D;54240;51.096;5.878;2022-09-29T05:19:39;5.12;118.99
67358;HTU21D;54240;51.096;5.878;2022-09-29T05:22:05;5.12;118.99
67358;HTU21D;54240;51.096;5.878;2022-09-29T05:24:31;5.17;118.99
67358;HTU21D;54240;51.096;5.878;2022-09-29T05:26:57;5.17;118.99
67358;HTU21D;54240;51.096;5.878;2022-09-29T05:29:23;5.19;118.99
67358;HTU21D;54240;51.096;5.878;2022-09-29T05:31:49;5.20;118.99
67358;HTU21D;54240;51.096;5.878;2022-09-29T05:34:16;5.20;118.99
67358;HTU21D;54240;51.096;5.878;2022-09-29T05:36:42;5.23;118.99
67358;HTU21D;54240;51.096;5.878;2022-09-29T05:39:09;5.23;118.99
67358;HTU21D;54240;51.096;5.878;2022-09-29T05:41:35;5.23;118.99
67358;HTU21D;54240;51.096;5.878;2022-09-29T05:44:01;5.22;118.99
67358;HTU21D;54240;51.096;5.878;2022-09-29T05:46:27;5.21;118.99
67358;HTU21D;54240;51.096;5.878;2022-09-29T05:48:53;5.23;118.99
67358;HTU21D;54240;51.096;5.878;2022-09-29T05:51:22;5.23;118.99
67358;HTU21D;54240;51.096;5.878;2022-09-29T05:53:49;5.25;118.99
67358;HTU21D;54240;51.096;5.878;2022-09-29T05:56:21;5.27;118.99
67358;HTU21D;54240;51.096;5.878;2022-09-29T05:58:47;5.28;118.99
67358;HTU21D;54240;51.096;5.878;2022-09-29T06:01:16;5.32;118.99
67358;HTU21D;54240;51.096;5.878;2022-09-29T06:03:43;5.35;118.99
67358;HTU21D;54240;51.096;5.878;2022-09-29T06:06:26;5.40;118.99
67358;HTU21D;54240;51.096;5.878;2022-09-29T06:08:52;5.46;118.99
67358;HTU21D;54240;51.096;5.878;2022-09-29T06:11:27;5.51;118.99
67358;HTU21D;54240;51.096;5.878;2022-09-29T06:13:54;5.54;118.99
67358;HTU21D;54240;51.096;5.878;2022-09-29T06:16:26;5.61;118.99
67358;HTU21D;54240;51.096;5.878;2022-09-29T06:18:53;5.67;118.99
67358;HTU21D;54240;51.096;5.878;2022-09-29T06:21:22;5.75;118.99
67358;HTU21D;54240;51.096;5.878;2022-09-29T06:23:49;5.81;118.99
67358;HTU21D;54240;51.096;5.878;2022-09-29T06:26:17;5.89;118.99
67358;HTU21D;54240;51.096;5.878;2022-09-29T06:28:43;5.97;118.99
67358;HTU21D;54240;51.096;5.878;2022-09-29T06:31:18;6.04;118.99
67358;HTU21D;54240;51.096;5.878;2022-09-29T06:33:44;6.13;118.99
67358;HTU21D;54240;51.096;5.878;2022-09-29T06:39:01;6.26;118.99
67358;HTU21D;54240;51.096;5.878;2022-09-29T06:41:26;6.35;118.99
67358;HTU21D;54240;51.096;5.878;2022-09-29T06:43:54;6.42;118.99
67358;HTU21D;54240;51.096;5.878;2022-09-29T06:46:20;6.51;118.99
67358;HTU21D;54240;51.096;5.878;2022-09-29T06:48:47;6.60;118.99
67358;HTU21D;54240;51.096;5.878;2022-09-29T06:51:13;6.71;118.99
67358;HTU21D;54240;51.096;5.878;2022-09-29T06:53:40;6.81;118.99
67358;HTU21D;54240;51.096;5.878;2022-09-29T06:56:07;6.94;118.99
67358;HTU21D;54240;51.096;5.878;2022-09-29T06:58:36;7.03;118.99
67358;HTU21D;54240;51.096;5.878;2022-09-29T07:01:02;7.15;118.99
67358;HTU21D;54240;51.096;5.878;2022-09-29T07:03:31;7.25;118.99
67358;HTU21D;54240;51.096;5.878;2022-09-29T07:06:04;7.41;118.99
67358;HTU21D;54240;51.096;5.878;2022-09-29T07:08:30;7.59;118.99
67358;HTU21D;54240;51.096;5.878;2022-09-29T07:10:56;7.88;118.99
67358;HTU21D;54240;51.096;5.878;2022-09-29T07:13:24;8.29;118.99
67358;HTU21D;54240;51.096;5.878;2022-09-29T07:15:51;8.83;118.99
67358;HTU21D;54240;51.096;5.878;2022-09-29T07:18:20;9.33;118.99
67358;HTU21D;54240;51.096;5.878;2022-09-29T07:20:46;9.65;118.99
67358;HTU21D;54240;51.096;5.878;2022-09-29T07:23:12;9.92;118.99
67358;HTU21D;54240;51.096;5.878;2022-09-29T07:25:38;10.25;118.99
67358;HTU21D;54240;51.096;5.878;2022-09-29T07:28:04;10.64;118.99
67358;HTU21D;54240;51.096;5.878;2022-09-29T07:30:30;11.04;118.99
67358;HTU21D;54240;51.096;5.878;2022-09-29T07:32:56;11.39;118.99
67358;HTU21D;54240;51.096;5.878;2022-09-29T07:35:23;11.75;118.99
67358;HTU21D;54240;51.096;5.878;2022-09-29T07:37:55;12.06;118.99
67358;HTU21D;54240;51.096;5.878;2022-09-29T07:40:23;12.33;118.99
67358;HTU21D;54240;51.096;5.878;2022-09-29T07:42:49;12.50;118.99
67358;HTU21D;54240;51.096;5.878;2022-09-29T07:45:16;12.78;118.99
67358;HTU21D;54240;51.096;5.878;2022-09-29T07:47:42;13.04;118.99
67358;HTU21D;54240;51.096;5.878;2022-09-29T07:50:09;13.27;118.99
67358;HTU21D;54240;51.096;5.878;2022-09-29T07:52:35;13.44;118.99
67358;HTU21D;54240;51.096;5.878;2022-09-29T07:55:01;13.67;118.99
67358;HTU21D;54240;51.096;5.878;2022-09-29T07:57:27;13.82;118.99
67358;HTU21D;54240;51.096;5.878;2022-09-29T07:59:53;13.93;118.99
67358;HTU21D;54240;51.096;5.878;2022-09-29T08:02:20;13.94;118.99
67358;HTU21D;54240;51.096;5.878;2022-09-29T08:04:45;13.99;118.99
67358;HTU21D;54240;51.096;5.878;2022-09-29T08:07:11;14.12;118.99
67358;HTU21D;54240;51.096;5.878;2022-09-29T08:09:37;14.41;118.98
67358;HTU21D;54240;51.096;5.878;2022-09-29T08:12:03;14.83;117.23
67358;HTU21D;54240;51.096;5.878;2022-09-29T08:14:28;14.95;105.51
67358;HTU21D;54240;51.096;5.878;2022-09-29T08:16:54;15.11;101.07
67358;HTU21D;54240;51.096;5.878;2022-09-29T08:19:20;15.32;99.34
67358;HTU21D;54240;51.096;5.878;2022-09-29T08:21:46;15.21;93.39
67358;HTU21D;54240;51.096;5.878;2022-09-29T08:24:14;15.38;91.50
67358;HTU21D;54240;51.096;5.878;2022-09-29T08:26:42;15.44;82.77
67358;HTU21D;54240;51.096;5.878;2022-09-29T08:29:08;15.66;80.20
67358;HTU21D;54240;51.096;5.878;2022-09-29T08:31:35;15.75;71.58
67358;HTU21D;54240;51.096;5.878;2022-09-29T08:34:02;16.10;66.91
67358;HTU21D;54240;51.096;5.878;2022-09-29T08:36:28;16.36;60.80
67358;HTU21D;54240;51.096;5.878;2022-09-29T08:38:56;16.63;51.27
67358;HTU21D;54240;51.096;5.878;2022-09-29T08:44:59;17.67;32.38
67358;HTU21D;54240;51.096;5.878;2022-09-29T08:47:34;17.92;20.89
67358;HTU21D;54240;51.096;5.878;2022-09-29T08:50:13;18.54;15.76
67358;HTU21D;54240;51.096;5.878;2022-09-29T08:52:45;18.93;-4.84
67358;HTU21D;54240;51.096;5.878;2022-09-29T08:57:43;19.13;-6.00
67358;HTU21D;54240;51.096;5.878;2022-09-29T09:00:15;19.16;-6.00
67358;HTU21D;54240;51.096;5.878;2022-09-29T09:03:04;19.52;-6.00
67358;HTU21D;54240;51.096;5.878;2022-09-29T09:09:01;19.95;-6.00
67358;HTU21D;54240;51.096;5.878;2022-09-29T09:17:23;20.73;-6.00
67358;HTU21D;54240;51.096;5.878;2022-09-29T09:22:28;20.73;-6.00
67358;HTU21D;54240;51.096;5.878;2022-09-29T09:25:31;20.69;-6.00
67358;HTU21D;54240;51.096;5.878;2022-09-29T09:28:18;20.80;-6.00
67358;HTU21D;54240;51.096;5.878;2022-09-29T09:31:20;20.88;-6.00
67358;HTU21D;54240;51.096;5.878;2022-09-29T09:34:17;20.81;-6.00
67358;HTU21D;54240;51.096;5.878;2022-09-29T09:37:04;20.65;-6.00
67358;HTU21D;54240;51.096;5.878;2022-09-29T09:39:35;20.53;-6.00
67358;HTU21D;54240;51.096;5.878;2022-09-29T09:42:15;20.79;-6.00
67358;HTU21D;54240;51.096;5.878;2022-09-29T09:44:49;20.69;-6.00
67358;HTU21D;54240;51.096;5.878;2022-09-29T09:49:55;19.79;-6.00
67358;HTU21D;54240;51.096;5.878;2022-09-29T09:55:20;19.82;-6.00
67358;HTU21D;54240;51.096;5.878;2022-09-29T09:58:11;20.51;-6.00
67358;HTU21D;54240;51.096;5.878;2022-09-29T10:00:51;21.05;-6.00
67358;HTU21D;54240;51.096;5.878;2022-09-29T10:03:19;21.37;-6.00
67358;HTU21D;54240;51.096;5.878;2022-09-29T10:05:47;21.80;-6.00
67358;HTU21D;54240;51.096;5.878;2022-09-29T10:08:26;22.04;-6.00
67358;HTU21D;54240;51.096;5.878;2022-09-29T10:10:54;21.93;-6.00
67358;HTU21D;54240;51.096;5.878;2022-09-29T10:13:25;21.97;-6.00
67358;HTU21D;54240;51.096;5.878;2022-09-29T10:16:15;22.08;-6.00
67358;HTU21D;54240;51.096;5.878;2022-09-29T10:18:45;22.16;-6.00
67358;HTU21D;54240;51.096;5.878;2022-09-29T10:23:55;22.95;-6.00
67358;HTU21D;54240;51.096;5.878;2022-09-29T10:26:30;22.84;-6.00
67358;HTU21D;54240;51.096;5.878;2022-09-29T10:29:00;22.66;-6.00
67358;HTU21D;54240;51.096;5.878;2022-09-29T10:31:30;22.93;-6.00
67358;HTU21D;54240;51.096;5.878;2022-09-29T10:34:12;23.20;-6.00
67358;HTU21D;54240;51.096;5.878;2022-09-29T10:36:59;22.02;-6.00
67358;HTU21D;54240;51.096;5.878;2022-09-29T10:39:41;21.53;-6.00
67358;HTU21D;54240;51.096;5.878;2022-09-29T10:42:24;21.45;-6.00
67358;HTU21D;54240;51.096;5.878;2022-09-29T10:45:09;21.52;-6.00
67358;HTU21D;54240;51.096;5.878;2022-09-29T10:47:35;20.43;-6.00
67358;HTU21D;54240;51.096;5.878;2022-09-29T10:50:18;19.67;-6.00
67358;HTU21D;54240;51.096;5.878;2022-09-29T10:52:51;19.55;-6.00
67358;HTU21D;54240;51.096;5.878;2022-09-29T10:55:24;19.14;-6.00
67358;HTU21D;54240;51.096;5.878;2022-09-29T10:57:54;18.54;-6.00
67358;HTU21D;54240;51.096;5.878;2022-09-29T11:03:02;18.02;-6.00
67358;HTU21D;54240;51.096;5.878;2022-09-29T11:05:29;17.76;-6.00
67358;HTU21D;54240;51.096;5.878;2022-09-29T11:07:55;17.82;-6.00
67358;HTU21D;54240;51.096;5.878;2022-09-29T11:10:35;18.56;-6.00
67358;HTU21D;54240;51.096;5.878;2022-09-29T11:15:46;21.02;-6.00
67358;HTU21D;54240;51.096;5.878;2022-09-29T11:18:24;21.51;-6.00
67358;HTU21D;54240;51.096;5.878;2022-09-29T11:26:50;19.29;-6.00
67358;HTU21D;54240;51.096;5.878;2022-09-29T11:35:01;20.27;-6.00
67358;HTU21D;54240;51.096;5.878;2022-09-29T11:41:19;20.40;-6.00
67358;HTU21D;54240;51.096;5.878;2022-09-29T11:46:04;19.02;-6.00
67358;HTU21D;54240;51.096;5.878;2022-09-29T11:48:37;18.67;-6.00
67358;HTU21D;54240;51.096;5.878;2022-09-29T11:53:43;18.23;-6.00
67358;HTU21D;54240;51.096;5.878;2022-09-29T12:01:53;18.51;-6.00
67358;HTU21D;54240;51.096;5.878;2022-09-29T12:06:55;19.53;-6.00
67358;HTU21D;54240;51.096;5.878;2022-09-29T12:12:09;20.10;-6.00
67358;HTU21D;54240;51.096;5.878;2022-09-29T12:17:42;20.13;-6.00
67358;HTU21D;54240;51.096;5.878;2022-09-29T12:20:23;19.79;-6.00
67358;HTU21D;54240;51.096;5.878;2022-09-29T12:22:53;19.05;-6.00
67358;HTU21D;54240;51.096;5.878;2022-09-29T12:25:26;18.63;-6.00
67358;HTU21D;54240;51.096;5.878;2022-09-29T12:28:01;18.37;-6.00
67358;HTU21D;54240;51.096;5.878;2022-09-29T12:30:44;18.35;-6.00
67358;HTU21D;54240;51.096;5.878;2022-09-29T12:33:37;18.10;-6.00
67358;HTU21D;54240;51.096;5.878;2022-09-29T12:45:11;17.39;-6.00
67358;HTU21D;54240;51.096;5.878;2022-09-29T12:50:56;17.99;-6.00
67358;HTU21D;54240;51.096;5.878;2022-09-29T12:53:31;18.39;-6.00
67358;HTU21D;54240;51.096;5.878;2022-09-29T12:56:09;18.85;-6.00
67358;HTU21D;54240;51.096;5.878;2022-09-29T12:58:41;19.16;-6.00
67358;HTU21D;54240;51.096;5.878;2022-09-29T13:01:31;19.42;-6.00
67358;HTU21D;54240;51.096;5.878;2022-09-29T13:04:09;19.40;-6.00
67358;HTU21D;54240;51.096;5.878;2022-09-29T13:06:47;19.26;-6.00
67358;HTU21D;54240;51.096;5.878;2022-09-29T13:15:30;19.29;-6.00
67358;HTU21D;54240;51.096;5.878;2022-09-29T13:18:15;19.25;-6.00
67358;HTU21D;54240;51.096;5.878;2022-09-29T13:21:01;19.53;-6.00
67358;HTU21D;54240;51.096;5.878;2022-09-29T13:23:38;19.76;-6.00
67358;HTU21D;54240;51.096;5.878;2022-09-29T13:28:56;19.76;-6.00
67358;HTU21D;54240;51.096;5.878;2022-09-29T13:31:27;19.81;-6.00
67358;HTU21D;54240;51.096;5.878;2022-09-29T13:33:56;19.71;-6.00
67358;HTU21D;54240;51.096;5.878;2022-09-29T13:36:29;19.71;-6.00
67358;HTU21D;54240;51.096;5.878;2022-09-29T13:39:03;19.66;-6.00
67358;HTU21D;54240;51.096;5.878;2022-09-29T13:49:14;18.97;-6.00
67358;HTU21D;54240;51.096;5.878;2022-09-29T13:51:58;18.66;-6.00
67358;HTU21D;54240;51.096;5.878;2022-09-29T13:54:42;18.23;-6.00
67358;HTU21D;54240;51.096;5.878;2022-09-29T14:02:35;17.72;-6.00
67358;HTU21D;54240;51.096;5.878;2022-09-29T14:08:11;17.66;-6.00
67358;HTU21D;54240;51.096;5.878;2022-09-29T14:10:43;17.64;-6.00
67358;HTU21D;54240;51.096;5.878;2022-09-29T14:13:28;17.64;-6.00
67358;HTU21D;54240;51.096;5.878;2022-09-29T14:18:52;17.49;-6.00
67358;HTU21D;54240;51.096;5.878;2022-09-29T14:30:11;17.52;-6.00
67358;HTU21D;54240;51.096;5.878;2022-09-29T14:35:36;17.62;-6.00
67358;HTU21D;54240;51.096;5.878;2022-09-29T14:38:23;17.64;-6.00
67358;HTU21D;54240;51.096;5.878;2022-09-29T14:40:55;17.72;-6.00
67358;HTU21D;54240;51.096;5.878;2022-09-29T14:43:47;17.80;-6.00
67358;HTU21D;54240;51.096;5.878;2022-09-29T14:46:31;17.72;-6.00
67358;HTU21D;54240;51.096;5.878;2022-09-29T14:55:32;17.49;-6.00
67358;HTU21D;54240;51.096;5.878;2022-09-29T15:03:43;17.09;-6.00
67358;HTU21D;54240;51.096;5.878;2022-09-29T15:06:13;17.30;-6.00
67358;HTU21D;54240;51.096;5.878;2022-09-29T15:08:42;17.45;-6.00
67358;HTU21D;54240;51.096;5.878;2022-09-29T15:11:24;17.67;-6.00
67358;HTU21D;54240;51.096;5.878;2022-09-29T15:13:56;17.89;-6.00
67358;HTU21D;54240;51.096;5.878;2022-09-29T15:25:35;18.41;-6.00
67358;HTU21D;54240;51.096;5.878;2022-09-29T15:30:41;18.25;-6.00
67358;HTU21D;54240;51.096;5.878;2022-09-29T15:33:23;18.12;-6.00
67358;HTU21D;54240;51.096;5.878;2022-09-29T15:36:00;18.07;-6.00
67358;HTU21D;54240;51.096;5.878;2022-09-29T15:38:36;18.12;-6.00
67358;HTU21D;54240;51.096;5.878;2022-09-29T15:43:41;18.17;-6.00
67358;HTU21D;54240;51.096;5.878;2022-09-29T15:46:17;17.99;-6.00
67358;HTU21D;54240;51.096;5.878;2022-09-29T15:49:09;17.76;-6.00
67358;HTU21D;54240;51.096;5.878;2022-09-29T15:51:36;17.67;-6.00
67358;HTU21D;54240;51.096;5.878;2022-09-29T15:54:04;17.70;-6.00
67358;HTU21D;54240;51.096;5.878;2022-09-29T15:56:36;17.72;-6.00
67358;HTU21D;54240;51.096;5.878;2022-09-29T16:02:30;17.37;-6.00
67358;HTU21D;54240;51.096;5.878;2022-09-29T16:05:01;17.31;-6.00
67358;HTU21D;54240;51.096;5.878;2022-09-29T16:07:33;17.21;-6.00
67358;HTU21D;54240;51.096;5.878;2022-09-29T16:10:19;17.19;-6.00
67358;HTU21D;54240;51.096;5.878;2022-09-29T16:15:42;16.88;-6.00
67358;HTU21D;54240;51.096;5.878;2022-09-29T16:20:48;16.43;-6.00
67358;HTU21D;54240;51.096;5.878;2022-09-29T16:28:32;16.11;-6.00
67358;HTU21D;54240;51.096;5.878;2022-09-29T16:33:33;15.97;-6.00
67358;HTU21D;54240;51.096;5.878;2022-09-29T16:36:03;15.89;-6.00
67358;HTU21D;54240;51.096;5.878;2022-09-29T16:38:47;15.87;-6.00
67358;HTU21D;54240;51.096;5.878;2022-09-29T16:41:31;15.84;-6.00
67358;HTU21D;54240;51.096;5.878;2022-09-29T16:44:22;15.80;-6.00
67358;HTU21D;54240;51.096;5.878;2022-09-29T16:54:43;15.14;-6.00
67358;HTU21D;54240;51.096;5.878;2022-09-29T16:57:21;14.98;-6.00
67358;HTU21D;54240;51.096;5.878;2022-09-29T16:59:53;14.82;-6.00
67358;HTU21D;54240;51.096;5.878;2022-09-29T17:02:20;14.66;-6.00
67358;HTU21D;54240;51.096;5.878;2022-09-29T17:04:48;14.51;-6.00
67358;HTU21D;54240;51.096;5.878;2022-09-29T17:07:15;14.36;-6.00
67358;HTU21D;54240;51.096;5.878;2022-09-29T17:09:54;14.21;-6.00
67358;HTU21D;54240;51.096;5.878;2022-09-29T17:12:22;14.06;-6.00
67358;HTU21D;54240;51.096;5.878;2022-09-29T17:14:48;13.92;-6.00
67358;HTU21D;54240;51.096;5.878;2022-09-29T17:17:18;13.80;-6.00
67358;HTU21D;54240;51.096;5.878;2022-09-29T17:19:50;13.70;-6.00
67358;HTU21D;54240;51.096;5.878;2022-09-29T17:22:31;13.59;0.66
67358;HTU21D;54240;51.096;5.878;2022-09-29T17:24:59;13.47;5.64
67358;HTU21D;54240;51.096;5.878;2022-09-29T17:27:26;13.35;13.00
67358;HTU21D;54240;51.096;5.878;2022-09-29T17:30:18;13.22;23.66
67358;HTU21D;54240;51.096;5.878;2022-09-29T17:32:46;13.11;33.43
67358;HTU21D;54240;51.096;5.878;2022-09-29T17:35:13;13.01;44.07
67358;HTU21D;54240;51.096;5.878;2022-09-29T17:37:43;12.90;54.55
67358;HTU21D;54240;51.096;5.878;2022-09-29T17:40:33;12.80;61.29
67358;HTU21D;54240;51.096;5.878;2022-09-29T17:43:00;12.71;69.03
67358;HTU21D;54240;51.096;5.878;2022-09-29T17:45:28;12.62;75.31
67358;HTU21D;54240;51.096;5.878;2022-09-29T17:47:55;12.51;78.36
67358;HTU21D;54240;51.096;5.878;2022-09-29T17:50:31;12.42;84.68
67358;HTU21D;54240;51.096;5.878;2022-09-29T17:53:00;12.31;92.25
67358;HTU21D;54240;51.096;5.878;2022-09-29T17:55:30;12.19;100.28
67358;HTU21D;54240;51.096;5.878;2022-09-29T17:57:56;12.07;106.25
67358;HTU21D;54240;51.096;5.878;2022-09-29T18:00:25;11.96;113.19
67358;HTU21D;54240;51.096;5.878;2022-09-29T18:02:53;11.82;118.99
67358;HTU21D;54240;51.096;5.878;2022-09-29T18:05:23;11.67;118.99
67358;HTU21D;54240;51.096;5.878;2022-09-29T18:07:51;11.54;118.99
67358;HTU21D;54240;51.096;5.878;2022-09-29T18:10:27;11.44;118.99
67358;HTU21D;54240;51.096;5.878;2022-09-29T18:12:53;11.37;118.99
67358;HTU21D;54240;51.096;5.878;2022-09-29T18:15:19;11.30;118.99
67358;HTU21D;54240;51.096;5.878;2022-09-29T18:17:46;11.26;118.99
67358;HTU21D;54240;51.096;5.878;2022-09-29T18:20:18;11.22;118.99
67358;HTU21D;54240;51.096;5.878;2022-09-29T18:22:45;11.17;118.99
67358;HTU21D;54240;51.096;5.878;2022-09-29T18:25:14;11.12;118.99
67358;HTU21D;54240;51.096;5.878;2022-09-29T18:27:43;11.07;118.99
67358;HTU21D;54240;51.096;5.878;2022-09-29T18:30:49;11.02;118.99
67358;HTU21D;54240;51.096;5.878;2022-09-29T18:33:14;10.97;118.99
67358;HTU21D;54240;51.096;5.878;2022-09-29T18:35:42;10.93;118.99
67358;HTU21D;54240;51.096;5.878;2022-09-29T18:38:10;10.92;118.99
67358;HTU21D;54240;51.096;5.878;2022-09-29T18:40:37;10.87;118.99
67358;HTU21D;54240;51.096;5.878;2022-09-29T18:43:04;10.82;118.99
67358;HTU21D;54240;51.096;5.878;2022-09-29T18:45:35;10.77;118.99
67358;HTU21D;54240;51.096;5.878;2022-09-29T18:48:04;10.70;118.99
67358;HTU21D;54240;51.096;5.878;2022-09-29T18:50:34;10.67;118.99
67358;HTU21D;54240;51.096;5.878;2022-09-29T18:53:00;10.62;118.99
67358;HTU21D;54240;51.096;5.878;2022-09-29T18:55:28;10.59;118.99